sensor_id;sensor_type;location;lat;lon;timestamp;temperature;humidity
15357;DHT22;7778;48.792;9.260;2023-06-24T00:01:53;17.40;99.90
15357;DHT22;7778;48.792;9.260;2023-06-24T00:04:39;17.40;99.90
15357;DHT22;7778;48.792;9.260;2023-06-24T00:07:26;17.50;99.90
15357;DHT22;7778;48.792;9.260;2023-06-24T00:10:13;17.40;99.90
15357;DHT22;7778;48.792;9.260;2023-06-24T00:12:59;17.40;99.90
15357;DHT22;7778;48.792;9.260;2023-06-24T00:15:46;17.40;99.90
15357;DHT22;7778;48.792;9.260;2023-06-24T00:18:32;17.40;99.90
15357;DHT22;7778;48.792;9.260;2023-06-24T00:21:17;17.30;99.90
15357;DHT22;7778;48.792;9.260;2023-06-24T00:24:05;17.30;99.90
15357;DHT22;7778;48.792;9.260;2023-06-24T00:26:51;17.30;99.90
15357;DHT22;7778;48.792;9.260;2023-06-24T00:29:36;17.00;99.90
15357;DHT22;7778;48.792;9.260;2023-06-24T00:32:22;17.10;99.90
15357;DHT22;7778;48.792;9.260;2023-06-24T00:35:09;17.10;99.90
15357;DHT22;7778;48.792;9.260;2023-06-24T00:37:55;17.10;99.90
15357;DHT22;7778;48.792;9.260;2023-06-24T00:40:43;17.00;99.90
15357;DHT22;7778;48.792;9.260;2023-06-24T00:43:30;16.90;99.90
15357;DHT22;7778;48.792;9.260;2023-06-24T00:46:16;16.90;99.90
15357;DHT22;7778;48.792;9.260;2023-06-24T00:49:03;16.80;99.90
15357;DHT22;7778;48.792;9.260;2023-06-24T00:51:49;16.80;99.90
15357;DHT22;7778;48.792;9.260;2023-06-24T00:54:35;16.90;99.90
15357;DHT22;7778;48.792;9.260;2023-06-24T00:57:22;16.80;99.90
15357;DHT22;7778;48.792;9.260;2023-06-24T01:00:08;16.70;99.90
15357;DHT22;7778;48.792;9.260;2023-06-24T01:02:58;16.70;99.90
15357;DHT22;7778;48.792;9.260;2023-06-24T01:05:44;16.70;99.90
15357;DHT22;7778;48.792;9.260;2023-06-24T01:08:31;16.70;99.90
15357;DHT22;7778;48.792;9.260;2023-06-24T01:11:16;16.50;99.90
15357;DHT22;7778;48.792;9.260;2023-06-24T01:14:03;16.40;99.90
15357;DHT22;7778;48.792;9.260;2023-06-24T01:16:55;16.70;99.90
15357;DHT22;7778;48.792;9.260;2023-06-24T01:19:57;16.70;99.90
15357;DHT22;7778;48.792;9.260;2023-06-24T01:26:57;16.70;99.90
15357;DHT22;7778;48.792;9.260;2023-06-24T01:30:14;16.70;99.90
15357;DHT22;7778;48.792;9.260;2023-06-24T01:33:13;16.80;99.90
15357;DHT22;7778;48.792;9.260;2023-06-24T01:36:01;16.40;99.90
15357;DHT22;7778;48.792;9.260;2023-06-24T01:38:52;16.40;99.90
15357;DHT22;7778;48.792;9.260;2023-06-24T01:41:43;16.60;99.90
15357;DHT22;7778;48.792;9.260;2023-06-24T01:44:31;16.60;99.90
15357;DHT22;7778;48.792;9.260;2023-06-24T01:47:20;16.40;99.90
15357;DHT22;7778;48.792;9.260;2023-06-24T01:50:10;16.50;99.90
15357;DHT22;7778;48.792;9.260;2023-06-24T01:52:57;16.60;99.90
15357;DHT22;7778;48.792;9.260;2023-06-24T01:55:43;16.60;99.90
15357;DHT22;7778;48.792;9.260;2023-06-24T01:58:32;16.60;99.90
15357;DHT22;7778;48.792;9.260;2023-06-24T02:01:19;16.60;99.90
15357;DHT22;7778;48.792;9.260;2023-06-24T02:04:08;16.60;99.90
15357;DHT22;7778;48.792;9.260;2023-06-24T02:06:58;16.40;99.90
15357;DHT22;7778;48.792;9.260;2023-06-24T02:09:46;16.30;99.90
15357;DHT22;7778;48.792;9.260;2023-06-24T02:12:33;16.40;99.90
15357;DHT22;7778;48.792;9.260;2023-06-24T02:15:19;16.50;99.90
15357;DHT22;7778;48.792;9.260;2023-06-24T02:18:06;16.50;99.90
15357;DHT22;7778;48.792;9.260;2023-06-24T02:20:54;16.50;99.90
15357;DHT22;7778;48.792;9.260;2023-06-24T02:23:43;16.50;99.90
15357;DHT22;7778;48.792;9.260;2023-06-24T02:26:28;16.50;99.90
15357;DHT22;7778;48.792;9.260;2023-06-24T02:29:14;16.50;99.90
15357;DHT22;7778;48.792;9.260;2023-06-24T02:32:00;16.30;99.90
15357;DHT22;7778;48.792;9.260;2023-06-24T02:34:46;16.30;99.90
15357;DHT22;7778;48.792;9.260;2023-06-24T02:37:32;16.30;99.90
15357;DHT22;7778;48.792;9.260;2023-06-24T02:40:19;16.30;99.90
15357;DHT22;7778;48.792;9.260;2023-06-24T02:43:05;16.50;99.90
15357;DHT22;7778;48.792;9.260;2023-06-24T02:45:50;16.40;99.90
15357;DHT22;7778;48.792;9.260;2023-06-24T02:48:38;16.20;99.90
15357;DHT22;7778;48.792;9.260;2023-06-24T02:51:25;16.10;99.90
15357;DHT22;7778;48.792;9.260;2023-06-24T02:54:11;15.70;99.90
15357;DHT22;7778;48.792;9.260;2023-06-24T02:56:58;15.50;99.90
15357;DHT22;7778;48.792;9.260;2023-06-24T02:59:44;15.70;99.90
15357;DHT22;7778;48.792;9.260;2023-06-24T03:02:30;15.80;99.90
15357;DHT22;7778;48.792;9.260;2023-06-24T03:05:17;15.90;99.90
15357;DHT22;7778;48.792;9.260;2023-06-24T03:08:04;16.10;99.90
15357;DHT22;7778;48.792;9.260;2023-06-24T03:10:49;16.10;99.90
15357;DHT22;7778;48.792;9.260;2023-06-24T03:13:36;16.10;99.90
15357;DHT22;7778;48.792;9.260;2023-06-24T03:16:22;16.10;99.90
15357;DHT22;7778;48.792;9.260;2023-06-24T03:19:07;16.10;99.90
15357;DHT22;7778;48.792;9.260;2023-06-24T03:21:53;16.10;99.90
15357;DHT22;7778;48.792;9.260;2023-06-24T03:24:39;16.00;99.90
15357;DHT22;7778;48.792;9.260;2023-06-24T03:27:24;16.10;99.90
15357;DHT22;7778;48.792;9.260;2023-06-24T03:30:12;16.10;99.90
15357;DHT22;7778;48.792;9.260;2023-06-24T03:32:59;16.10;99.90
15357;DHT22;7778;48.792;9.260;2023-06-24T03:35:44;16.10;99.90
15357;DHT22;7778;48.792;9.260;2023-06-24T03:38:30;16.10;99.90
15357;DHT22;7778;48.792;9.260;2023-06-24T03:41:16;16.10;99.90
15357;DHT22;7778;48.792;9.260;2023-06-24T03:44:02;16.10;99.90
15357;DHT22;7778;48.792;9.260;2023-06-24T03:46:49;16.10;99.90
15357;DHT22;7778;48.792;9.260;2023-06-24T03:49:34;16.10;99.90
15357;DHT22;7778;48.792;9.260;2023-06-24T03:52:20;16.00;99.90
15357;DHT22;7778;48.792;9.260;2023-06-24T03:55:06;16.00;99.90
15357;DHT22;7778;48.792;9.260;2023-06-24T03:57:52;16.10;99.90
15357;DHT22;7778;48.792;9.260;2023-06-24T04:00:37;16.20;99.90
15357;DHT22;7778;48.792;9.260;2023-06-24T04:03:26;16.20;99.90
15357;DHT22;7778;48.792;9.260;2023-06-24T04:06:11;16.20;99.90
15357;DHT22;7778;48.792;9.260;2023-06-24T04:08:57;16.30;99.90
15357;DHT22;7778;48.792;9.260;2023-06-24T04:11:43;16.40;99.90
15357;DHT22;7778;48.792;9.260;2023-06-24T04:14:28;16.30;99.90
15357;DHT22;7778;48.792;9.260;2023-06-24T04:17:14;16.50;99.90
15357;DHT22;7778;48.792;9.260;2023-06-24T04:20:01;16.60;99.90
15357;DHT22;7778;48.792;9.260;2023-06-24T04:22:51;16.50;99.90
15357;DHT22;7778;48.792;9.260;2023-06-24T04:25:37;16.50;99.90
15357;DHT22;7778;48.792;9.260;2023-06-24T04:28:22;16.60;99.90
15357;DHT22;7778;48.792;9.260;2023-06-24T04:31:08;16.60;99.90
15357;DHT22;7778;48.792;9.260;2023-06-24T04:33:54;16.80;99.90
15357;DHT22;7778;48.792;9.260;2023-06-24T04:36:41;16.90;99.90
15357;DHT22;7778;48.792;9.260;2023-06-24T04:39:27;16.90;99.90
15357;DHT22;7778;48.792;9.260;2023-06-24T04:42:12;17.20;99.90
15357;DHT22;7778;48.792;9.260;2023-06-24T04:44:58;17.30;99.90
15357;DHT22;7778;48.792;9.260;2023-06-24T04:47:44;17.60;99.90
15357;DHT22;7778;48.792;9.260;2023-06-24T04:50:30;17.60;99.90
15357;DHT22;7778;48.792;9.260;2023-06-24T04:53:17;17.80;99.90
15357;DHT22;7778;48.792;9.260;2023-06-24T04:56:03;17.80;99.90
15357;DHT22;7778;48.792;9.260;2023-06-24T04:58:49;18.00;99.90
15357;DHT22;7778;48.792;9.260;2023-06-24T05:01:34;17.90;99.90
15357;DHT22;7778;48.792;9.260;2023-06-24T05:04:20;17.70;99.90
15357;DHT22;7778;48.792;9.260;2023-06-24T05:07:05;17.80;99.90
15357;DHT22;7778;48.792;9.260;2023-06-24T05:09:52;18.00;99.90
15357;DHT22;7778;48.792;9.260;2023-06-24T05:12:38;19.20;99.90
15357;DHT22;7778;48.792;9.260;2023-06-24T05:15:24;20.10;99.90
15357;DHT22;7778;48.792;9.260;2023-06-24T05:18:09;20.80;99.90
15357;DHT22;7778;48.792;9.260;2023-06-24T05:20:55;21.60;99.90
15357;DHT22;7778;48.792;9.260;2023-06-24T05:23:40;22.60;99.90
15357;DHT22;7778;48.792;9.260;2023-06-24T05:26:27;23.50;99.90
15357;DHT22;7778;48.792;9.260;2023-06-24T05:29:13;25.10;99.90
15357;DHT22;7778;48.792;9.260;2023-06-24T05:31:59;26.10;99.90
15357;DHT22;7778;48.792;9.260;2023-06-24T05:34:47;27.60;99.90
15357;DHT22;7778;48.792;9.260;2023-06-24T05:37:33;28.10;99.90
15357;DHT22;7778;48.792;9.260;2023-06-24T05:40:18;28.60;99.90
15357;DHT22;7778;48.792;9.260;2023-06-24T05:43:05;28.30;99.90
15357;DHT22;7778;48.792;9.260;2023-06-24T05:45:51;27.90;99.90
15357;DHT22;7778;48.792;9.260;2023-06-24T05:48:36;28.10;99.90
15357;DHT22;7778;48.792;9.260;2023-06-24T05:51:22;29.00;99.90
15357;DHT22;7778;48.792;9.260;2023-06-24T05:54:07;28.60;99.90
15357;DHT22;7778;48.792;9.260;2023-06-24T05:56:53;28.40;99.90
15357;DHT22;7778;48.792;9.260;2023-06-24T05:59:40;28.60;99.20
15357;DHT22;7778;48.792;9.260;2023-06-24T06:02:26;27.50;99.90
15357;DHT22;7778;48.792;9.260;2023-06-24T06:05:11;27.10;99.90
15357;DHT22;7778;48.792;9.260;2023-06-24T06:07:57;27.80;99.90
15357;DHT22;7778;48.792;9.260;2023-06-24T06:10:42;27.50;99.90
15357;DHT22;7778;48.792;9.260;2023-06-24T06:13:28;27.00;99.90
15357;DHT22;7778;48.792;9.260;2023-06-24T06:16:15;26.70;99.90
15357;DHT22;7778;48.792;9.260;2023-06-24T06:19:01;27.20;99.90
15357;DHT22;7778;48.792;9.260;2023-06-24T06:21:48;27.80;99.90
15357;DHT22;7778;48.792;9.260;2023-06-24T06:24:35;28.00;99.90
15357;DHT22;7778;48.792;9.260;2023-06-24T06:27:20;28.00;98.90
15357;DHT22;7778;48.792;9.260;2023-06-24T06:30:07;28.20;98.70
15357;DHT22;7778;48.792;9.260;2023-06-24T06:32:54;29.10;97.60
15357;DHT22;7778;48.792;9.260;2023-06-24T06:35:40;28.40;96.50
15357;DHT22;7778;48.792;9.260;2023-06-24T06:38:25;28.50;96.90
15357;DHT22;7778;48.792;9.260;2023-06-24T06:41:12;28.30;96.50
15357;DHT22;7778;48.792;9.260;2023-06-24T06:43:57;28.30;96.30
15357;DHT22;7778;48.792;9.260;2023-06-24T06:46:43;28.70;96.40
15357;DHT22;7778;48.792;9.260;2023-06-24T06:49:30;29.60;95.20
15357;DHT22;7778;48.792;9.260;2023-06-24T06:52:15;29.90;94.10
15357;DHT22;7778;48.792;9.260;2023-06-24T06:55:02;28.90;94.60
15357;DHT22;7778;48.792;9.260;2023-06-24T06:57:48;29.10;95.60
15357;DHT22;7778;48.792;9.260;2023-06-24T07:00:33;30.20;94.00
15357;DHT22;7778;48.792;9.260;2023-06-24T07:03:19;31.10;92.50
15357;DHT22;7778;48.792;9.260;2023-06-24T07:06:06;30.80;90.90
15357;DHT22;7778;48.792;9.260;2023-06-24T07:08:52;31.30;91.10
15357;DHT22;7778;48.792;9.260;2023-06-24T07:11:37;29.70;92.00
15357;DHT22;7778;48.792;9.260;2023-06-24T07:14:23;30.70;91.50
15357;DHT22;7778;48.792;9.260;2023-06-24T07:17:08;31.70;90.70
15357;DHT22;7778;48.792;9.260;2023-06-24T07:19:54;32.20;88.50
15357;DHT22;7778;48.792;9.260;2023-06-24T07:22:41;32.30;86.70
15357;DHT22;7778;48.792;9.260;2023-06-24T07:25:26;32.50;85.40
15357;DHT22;7778;48.792;9.260;2023-06-24T07:28:12;33.10;82.80
15357;DHT22;7778;48.792;9.260;2023-06-24T07:30:58;33.20;79.30
15357;DHT22;7778;48.792;9.260;2023-06-24T07:33:43;33.00;76.90
15357;DHT22;7778;48.792;9.260;2023-06-24T07:36:29;32.50;76.60
15357;DHT22;7778;48.792;9.260;2023-06-24T07:39:16;31.50;78.10
15357;DHT22;7778;48.792;9.260;2023-06-24T07:42:02;32.10;77.60
15357;DHT22;7778;48.792;9.260;2023-06-24T07:44:48;33.30;76.60
15357;DHT22;7778;48.792;9.260;2023-06-24T07:47:34;33.00;75.30
15357;DHT22;7778;48.792;9.260;2023-06-24T07:50:19;32.80;72.50
15357;DHT22;7778;48.792;9.260;2023-06-24T07:53:05;32.80;73.10
15357;DHT22;7778;48.792;9.260;2023-06-24T07:55:52;32.70;75.80
15357;DHT22;7778;48.792;9.260;2023-06-24T07:58:38;32.80;73.70
15357;DHT22;7778;48.792;9.260;2023-06-24T08:01:23;33.40;71.30
15357;DHT22;7778;48.792;9.260;2023-06-24T08:04:09;33.20;71.40
15357;DHT22;7778;48.792;9.260;2023-06-24T08:06:54;33.00;68.20
15357;DHT22;7778;48.792;9.260;2023-06-24T08:09:40;33.50;69.80
15357;DHT22;7778;48.792;9.260;2023-06-24T08:12:26;33.90;69.70
15357;DHT22;7778;48.792;9.260;2023-06-24T08:15:12;34.20;68.30
15357;DHT22;7778;48.792;9.260;2023-06-24T08:17:58;34.20;68.70
15357;DHT22;7778;48.792;9.260;2023-06-24T08:20:43;34.10;64.80
15357;DHT22;7778;48.792;9.260;2023-06-24T08:23:29;34.40;66.60
15357;DHT22;7778;48.792;9.260;2023-06-24T08:26:15;34.90;63.00
15357;DHT22;7778;48.792;9.260;2023-06-24T08:29:01;34.00;62.20
15357;DHT22;7778;48.792;9.260;2023-06-24T08:31:48;32.60;64.50
15357;DHT22;7778;48.792;9.260;2023-06-24T08:34:34;33.20;68.10
15357;DHT22;7778;48.792;9.260;2023-06-24T08:37:20;33.70;64.00
15357;DHT22;7778;48.792;9.260;2023-06-24T08:40:06;34.50;64.90
15357;DHT22;7778;48.792;9.260;2023-06-24T08:42:52;34.70;60.90
15357;DHT22;7778;48.792;9.260;2023-06-24T08:45:40;34.50;60.80
15357;DHT22;7778;48.792;9.260;2023-06-24T08:48:27;34.90;59.70
15357;DHT22;7778;48.792;9.260;2023-06-24T08:51:18;34.80;59.80
15357;DHT22;7778;48.792;9.260;2023-06-24T08:54:07;34.30;58.80
15357;DHT22;7778;48.792;9.260;2023-06-24T08:56:55;33.90;60.80
15357;DHT22;7778;48.792;9.260;2023-06-24T08:59:41;33.90;58.80
15357;DHT22;7778;48.792;9.260;2023-06-24T09:02:30;34.50;59.60
15357;DHT22;7778;48.792;9.260;2023-06-24T09:05:19;35.10;57.90
15357;DHT22;7778;48.792;9.260;2023-06-24T09:08:05;35.40;55.10
15357;DHT22;7778;48.792;9.260;2023-06-24T09:10:53;34.80;55.70
15357;DHT22;7778;48.792;9.260;2023-06-24T09:13:39;34.90;57.20
15357;DHT22;7778;48.792;9.260;2023-06-24T09:16:25;34.60;58.80
15357;DHT22;7778;48.792;9.260;2023-06-24T09:19:20;35.20;55.60
15357;DHT22;7778;48.792;9.260;2023-06-24T09:22:07;34.90;54.60
15357;DHT22;7778;48.792;9.260;2023-06-24T09:25:01;34.40;55.10
15357;DHT22;7778;48.792;9.260;2023-06-24T09:27:48;33.90;54.80
15357;DHT22;7778;48.792;9.260;2023-06-24T09:30:36;32.20;59.20
15357;DHT22;7778;48.792;9.260;2023-06-24T09:33:22;32.60;60.30
15357;DHT22;7778;48.792;9.260;2023-06-24T09:36:12;34.10;61.50
15357;DHT22;7778;48.792;9.260;2023-06-24T09:39:05;34.70;57.20
15357;DHT22;7778;48.792;9.260;2023-06-24T09:41:51;35.50;57.00
15357;DHT22;7778;48.792;9.260;2023-06-24T09:44:37;36.00;54.80
15357;DHT22;7778;48.792;9.260;2023-06-24T09:47:23;36.00;55.90
15357;DHT22;7778;48.792;9.260;2023-06-24T09:50:09;36.60;53.90
15357;DHT22;7778;48.792;9.260;2023-06-24T09:52:56;35.30;51.00
15357;DHT22;7778;48.792;9.260;2023-06-24T09:55:43;35.70;47.50
15357;DHT22;7778;48.792;9.260;2023-06-24T09:58:31;34.80;45.10
15357;DHT22;7778;48.792;9.260;2023-06-24T10:01:18;34.10;49.60
15357;DHT22;7778;48.792;9.260;2023-06-24T10:04:04;34.00;48.30
15357;DHT22;7778;48.792;9.260;2023-06-24T10:06:51;32.70;48.70
15357;DHT22;7778;48.792;9.260;2023-06-24T10:09:38;32.50;47.30
15357;DHT22;7778;48.792;9.260;2023-06-24T10:12:24;32.50;47.80
15357;DHT22;7778;48.792;9.260;2023-06-24T10:15:11;33.40;50.20
15357;DHT22;7778;48.792;9.260;2023-06-24T10:18:01;33.70;49.30
15357;DHT22;7778;48.792;9.260;2023-06-24T10:20:48;34.10;47.40
15357;DHT22;7778;48.792;9.260;2023-06-24T10:23:41;34.10;49.00
15357;DHT22;7778;48.792;9.260;2023-06-24T10:26:35;32.90;47.90
15357;DHT22;7778;48.792;9.260;2023-06-24T10:29:30;32.50;50.20
15357;DHT22;7778;48.792;9.260;2023-06-24T10:32:18;31.90;52.60
15357;DHT22;7778;48.792;9.260;2023-06-24T10:35:05;31.60;51.90
15357;DHT22;7778;48.792;9.260;2023-06-24T10:37:55;30.50;53.30
15357;DHT22;7778;48.792;9.260;2023-06-24T10:40:42;31.20;53.90
15357;DHT22;7778;48.792;9.260;2023-06-24T10:43:30;32.10;54.90
15357;DHT22;7778;48.792;9.260;2023-06-24T10:46:15;33.00;56.60
15357;DHT22;7778;48.792;9.260;2023-06-24T10:49:04;32.50;52.60
15357;DHT22;7778;48.792;9.260;2023-06-24T10:51:50;32.10;51.60
15357;DHT22;7778;48.792;9.260;2023-06-24T10:54:37;31.20;55.20
15357;DHT22;7778;48.792;9.260;2023-06-24T10:57:24;30.70;53.90
15357;DHT22;7778;48.792;9.260;2023-06-24T11:00:13;31.00;51.70
15357;DHT22;7778;48.792;9.260;2023-06-24T11:03:08;31.30;55.00
15357;DHT22;7778;48.792;9.260;2023-06-24T11:05:54;31.60;54.30
15357;DHT22;7778;48.792;9.260;2023-06-24T11:08:44;31.40;53.20
15357;DHT22;7778;48.792;9.260;2023-06-24T11:11:31;30.00;54.00
15357;DHT22;7778;48.792;9.260;2023-06-24T11:14:16;28.90;56.40
15357;DHT22;7778;48.792;9.260;2023-06-24T11:17:04;29.60;58.70
15357;DHT22;7778;48.792;9.260;2023-06-24T11:19:51;29.80;56.30
15357;DHT22;7778;48.792;9.260;2023-06-24T11:22:37;30.60;58.10
15357;DHT22;7778;48.792;9.260;2023-06-24T11:25:24;30.80;56.70
15357;DHT22;7778;48.792;9.260;2023-06-24T11:28:14;31.40;54.80
15357;DHT22;7778;48.792;9.260;2023-06-24T11:31:06;32.00;53.00
15357;DHT22;7778;48.792;9.260;2023-06-24T11:33:54;32.20;53.90
15357;DHT22;7778;48.792;9.260;2023-06-24T11:36:39;31.80;51.50
15357;DHT22;7778;48.792;9.260;2023-06-24T11:39:26;30.40;50.50
15357;DHT22;7778;48.792;9.260;2023-06-24T11:42:13;29.80;52.50
15357;DHT22;7778;48.792;9.260;2023-06-24T11:45:00;28.90;52.80
15357;DHT22;7778;48.792;9.260;2023-06-24T11:47:46;28.60;52.80
15357;DHT22;7778;48.792;9.260;2023-06-24T11:50:35;29.00;52.80
15357;DHT22;7778;48.792;9.260;2023-06-24T11:53:29;29.40;54.20
15357;DHT22;7778;48.792;9.260;2023-06-24T11:56:16;30.00;55.60
15357;DHT22;7778;48.792;9.260;2023-06-24T11:59:04;30.50;54.60
15357;DHT22;7778;48.792;9.260;2023-06-24T12:01:54;30.40;52.10
15357;DHT22;7778;48.792;9.260;2023-06-24T12:04:43;30.00;53.40
15357;DHT22;7778;48.792;9.260;2023-06-24T12:07:31;30.30;52.60
15357;DHT22;7778;48.792;9.260;2023-06-24T12:10:17;30.10;52.40
15357;DHT22;7778;48.792;9.260;2023-06-24T12:13:03;30.00;52.90
15357;DHT22;7778;48.792;9.260;2023-06-24T12:15:49;29.50;51.80
15357;DHT22;7778;48.792;9.260;2023-06-24T12:18:35;28.70;53.10
15357;DHT22;7778;48.792;9.260;2023-06-24T12:21:21;28.00;53.80
15357;DHT22;7778;48.792;9.260;2023-06-24T12:55:28;28.60;54.20
15357;DHT22;7778;48.792;9.260;2023-06-24T12:58:16;29.30;53.90
15357;DHT22;7778;48.792;9.260;2023-06-24T13:01:04;29.90;57.00
15357;DHT22;7778;48.792;9.260;2023-06-24T13:03:49;30.20;53.60
15357;DHT22;7778;48.792;9.260;2023-06-24T13:06:35;30.30;55.70
15357;DHT22;7778;48.792;9.260;2023-06-24T13:09:20;30.50;52.60
15357;DHT22;7778;48.792;9.260;2023-06-24T13:12:08;30.30;51.10
15357;DHT22;7778;48.792;9.260;2023-06-24T13:14:54;29.70;50.70
15357;DHT22;7778;48.792;9.260;2023-06-24T13:17:39;29.50;53.00
15357;DHT22;7778;48.792;9.260;2023-06-24T13:20:25;29.60;53.70
15357;DHT22;7778;48.792;9.260;2023-06-24T13:23:11;29.90;53.80
15357;DHT22;7778;48.792;9.260;2023-06-24T13:25:56;29.80;53.30
15357;DHT22;7778;48.792;9.260;2023-06-24T13:28:43;29.60;54.00
15357;DHT22;7778;48.792;9.260;2023-06-24T13:31:29;29.00;53.00
15357;DHT22;7778;48.792;9.260;2023-06-24T13:34:15;28.60;53.80
15357;DHT22;7778;48.792;9.260;2023-06-24T13:37:01;28.60;53.90
15357;DHT22;7778;48.792;9.260;2023-06-24T13:39:46;28.40;54.60
15357;DHT22;7778;48.792;9.260;2023-06-24T13:42:32;28.40;54.80
15357;DHT22;7778;48.792;9.260;2023-06-24T13:45:19;28.50;57.50
15357;DHT22;7778;48.792;9.260;2023-06-24T13:48:04;28.80;56.00
15357;DHT22;7778;48.792;9.260;2023-06-24T13:50:50;28.90;56.50
15357;DHT22;7778;48.792;9.260;2023-06-24T13:53:36;28.90;55.60
15357;DHT22;7778;48.792;9.260;2023-06-24T13:56:22;28.20;55.30
15357;DHT22;7778;48.792;9.260;2023-06-24T13:59:08;28.00;56.00
15357;DHT22;7778;48.792;9.260;2023-06-24T14:01:56;28.00;56.20
15357;DHT22;7778;48.792;9.260;2023-06-24T14:04:41;28.30;58.10
15357;DHT22;7778;48.792;9.260;2023-06-24T14:07:27;28.60;57.70
15357;DHT22;7778;48.792;9.260;2023-06-24T14:10:14;29.00;58.30
15357;DHT22;7778;48.792;9.260;2023-06-24T14:13:00;29.10;55.70
15357;DHT22;7778;48.792;9.260;2023-06-24T14:15:45;28.90;55.90
15357;DHT22;7778;48.792;9.260;2023-06-24T14:18:32;28.90;55.90
15357;DHT22;7778;48.792;9.260;2023-06-24T14:21:18;29.10;56.50
15357;DHT22;7778;48.792;9.260;2023-06-24T14:24:05;29.10;55.90
15357;DHT22;7778;48.792;9.260;2023-06-24T14:26:51;29.10;55.60
15357;DHT22;7778;48.792;9.260;2023-06-24T14:29:36;28.60;55.00
15357;DHT22;7778;48.792;9.260;2023-06-24T14:32:22;28.40;57.00
15357;DHT22;7778;48.792;9.260;2023-06-24T14:35:09;28.70;57.80
15357;DHT22;7778;48.792;9.260;2023-06-24T14:37:55;28.90;57.90
15357;DHT22;7778;48.792;9.260;2023-06-24T14:40:41;29.00;57.10
15357;DHT22;7778;48.792;9.260;2023-06-24T14:43:27;28.90;56.90
15357;DHT22;7778;48.792;9.260;2023-06-24T14:46:19;28.90;55.10
15357;DHT22;7778;48.792;9.260;2023-06-24T14:49:05;28.50;55.10
15357;DHT22;7778;48.792;9.260;2023-06-24T14:51:53;28.60;56.40
15357;DHT22;7778;48.792;9.260;2023-06-24T14:54:39;28.60;56.20
15357;DHT22;7778;48.792;9.260;2023-06-24T14:57:25;28.70;54.70
15357;DHT22;7778;48.792;9.260;2023-06-24T15:00:11;28.60;56.80
15357;DHT22;7778;48.792;9.260;2023-06-24T15:02:57;28.70;55.00
15357;DHT22;7778;48.792;9.260;2023-06-24T15:05:43;28.50;53.10
15357;DHT22;7778;48.792;9.260;2023-06-24T15:08:31;28.20;55.20
15357;DHT22;7778;48.792;9.260;2023-06-24T15:11:22;28.40;54.40
15357;DHT22;7778;48.792;9.260;2023-06-24T15:14:07;28.30;54.70
15357;DHT22;7778;48.792;9.260;2023-06-24T15:16:53;28.30;55.30
15357;DHT22;7778;48.792;9.260;2023-06-24T15:19:42;28.50;55.70
15357;DHT22;7778;48.792;9.260;2023-06-24T15:22:27;28.50;56.00
15357;DHT22;7778;48.792;9.260;2023-06-24T15:25:14;28.60;55.90
15357;DHT22;7778;48.792;9.260;2023-06-24T15:28:00;28.60;57.70
15357;DHT22;7778;48.792;9.260;2023-06-24T15:30:46;28.60;57.00
15357;DHT22;7778;48.792;9.260;2023-06-24T15:33:31;28.60;56.50
15357;DHT22;7778;48.792;9.260;2023-06-24T15:36:17;28.50;56.20
15357;DHT22;7778;48.792;9.260;2023-06-24T15:39:05;28.50;55.90
15357;DHT22;7778;48.792;9.260;2023-06-24T15:41:52;28.30;54.90
15357;DHT22;7778;48.792;9.260;2023-06-24T15:44:37;28.20;57.20
15357;DHT22;7778;48.792;9.260;2023-06-24T15:47:23;28.20;56.00
15357;DHT22;7778;48.792;9.260;2023-06-24T15:50:09;27.90;54.20
15357;DHT22;7778;48.792;9.260;2023-06-24T15:52:55;27.80;56.50
15357;DHT22;7778;48.792;9.260;2023-06-24T15:55:41;27.80;56.90
15357;DHT22;7778;48.792;9.260;2023-06-24T15:58:27;27.80;56.70
15357;DHT22;7778;48.792;9.260;2023-06-24T16:01:13;27.80;57.20
15357;DHT22;7778;48.792;9.260;2023-06-24T16:03:58;27.70;56.30
15357;DHT22;7778;48.792;9.260;2023-06-24T16:06:44;27.70;56.70
15357;DHT22;7778;48.792;9.260;2023-06-24T16:09:30;27.80;57.80
15357;DHT22;7778;48.792;9.260;2023-06-24T16:12:15;27.80;57.70
15357;DHT22;7778;48.792;9.260;2023-06-24T16:15:03;27.80;57.70
15357;DHT22;7778;48.792;9.260;2023-06-24T16:17:49;27.70;56.20
15357;DHT22;7778;48.792;9.260;2023-06-24T16:20:35;27.70;56.20
15357;DHT22;7778;48.792;9.260;2023-06-24T16:23:21;27.80;57.80
15357;DHT22;7778;48.792;9.260;2023-06-24T16:26:06;27.70;57.20
15357;DHT22;7778;48.792;9.260;2023-06-24T16:28:52;27.70;56.70
15357;DHT22;7778;48.792;9.260;2023-06-24T16:31:39;27.80;57.00
15357;DHT22;7778;48.792;9.260;2023-06-24T16:34:25;27.90;56.40
15357;DHT22;7778;48.792;9.260;2023-06-24T16:37:11;27.80;57.40
15357;DHT22;7778;48.792;9.260;2023-06-24T16:39:56;27.80;56.80
15357;DHT22;7778;48.792;9.260;2023-06-24T16:42:42;27.70;56.20
15357;DHT22;7778;48.792;9.260;2023-06-24T16:45:27;27.60;55.80
15357;DHT22;7778;48.792;9.260;2023-06-24T16:48:14;27.50;56.60
15357;DHT22;7778;48.792;9.260;2023-06-24T16:51:00;27.40;55.70
15357;DHT22;7778;48.792;9.260;2023-06-24T16:53:46;27.50;57.00
15357;DHT22;7778;48.792;9.260;2023-06-24T16:56:31;27.50;57.40
15357;DHT22;7778;48.792;9.260;2023-06-24T16:59:17;27.50;57.20
15357;DHT22;7778;48.792;9.260;2023-06-24T17:02:03;27.50;57.10
15357;DHT22;7778;48.792;9.260;2023-06-24T17:04:50;27.60;57.80
15357;DHT22;7778;48.792;9.260;2023-06-24T17:07:36;27.50;56.50
15357;DHT22;7778;48.792;9.260;2023-06-24T17:10:22;27.40;56.70
15357;DHT22;7778;48.792;9.260;2023-06-24T17:13:07;27.40;57.80
15357;DHT22;7778;48.792;9.260;2023-06-24T17:15:53;27.30;57.50
15357;DHT22;7778;48.792;9.260;2023-06-24T17:18:38;27.30;57.30
15357;DHT22;7778;48.792;9.260;2023-06-24T17:21:25;27.20;57.30
15357;DHT22;7778;48.792;9.260;2023-06-24T17:24:11;27.10;56.30
15357;DHT22;7778;48.792;9.260;2023-06-24T17:26:56;27.10;56.70
15357;DHT22;7778;48.792;9.260;2023-06-24T17:29:42;27.00;56.30
15357;DHT22;7778;48.792;9.260;2023-06-24T17:32:27;26.90;58.30
15357;DHT22;7778;48.792;9.260;2023-06-24T17:35:13;26.90;57.70
15357;DHT22;7778;48.792;9.260;2023-06-24T17:38:00;26.90;57.50
15357;DHT22;7778;48.792;9.260;2023-06-24T17:40:45;26.80;57.80
15357;DHT22;7778;48.792;9.260;2023-06-24T17:43:31;26.70;59.50
15357;DHT22;7778;48.792;9.260;2023-06-24T17:46:16;26.60;58.70
15357;DHT22;7778;48.792;9.260;2023-06-24T17:49:02;26.70;59.10
15357;DHT22;7778;48.792;9.260;2023-06-24T17:51:48;26.70;58.20
15357;DHT22;7778;48.792;9.260;2023-06-24T17:54:35;26.60;58.20
15357;DHT22;7778;48.792;9.260;2023-06-24T17:57:20;26.60;58.20
15357;DHT22;7778;48.792;9.260;2023-06-24T18:00:07;26.60;57.30
15357;DHT22;7778;48.792;9.260;2023-06-24T18:02:53;26.50;58.00
15357;DHT22;7778;48.792;9.260;2023-06-24T18:05:39;26.40;58.10
15357;DHT22;7778;48.792;9.260;2023-06-24T18:08:24;26.40;58.70
15357;DHT22;7778;48.792;9.260;2023-06-24T18:11:11;26.40;58.40
15357;DHT22;7778;48.792;9.260;2023-06-24T18:13:57;26.30;58.70
15357;DHT22;7778;48.792;9.260;2023-06-24T18:16:48;26.30;58.90
15357;DHT22;7778;48.792;9.260;2023-06-24T18:19:34;26.30;59.40
15357;DHT22;7778;48.792;9.260;2023-06-24T18:22:21;26.20;58.60
15357;DHT22;7778;48.792;9.260;2023-06-24T18:25:07;26.20;59.60